Time;durP1;ratioP1;P1;durP2;ratioP2;P2;SDS_P1;SDS_P2;PMS_P1;PMS_P2;Temp;Humidity;BMP_temperature;BMP_pressure;BME280_temperature;BME280_humidity;BME280_pressure;Samples;Min_cycle;Max_cycle;Signal;HPM_P1;HPM_P2
2022/09/14 00:00:29;;;;;;;5.22;4.45;;;17.90;99.90;;;;;;4756144;27;9999945;-71
2022/09/14 00:02:54;;;;;;;6.63;4.57;;;17.90;99.90;;;;;;5122157;27;20023;-71
2022/09/14 00:05:20;;;;;;;6.25;4.65;;;17.80;99.90;;;;;;5122188;27;20100;-70
2022/09/14 00:07:46;;;;;;;5.57;5.07;;;17.80;99.90;;;;;;5126539;27;20017;-71
2022/09/14 00:10:12;;;;;;;4.55;4.10;;;17.80;99.90;;;;;;5118270;27;20054;-71
2022/09/14 00:12:37;;;;;;;4.70;4.30;;;17.80;99.90;;;;;;5129670;27;20399;-74
2022/09/14 00:15:05;;;;;;;5.40;4.90;;;17.70;99.90;;;;;;5134957;27;20027;-73
2022/09/14 00:17:31;;;;;;;6.38;4.82;;;17.70;99.90;;;;;;5117650;27;20149;-73
2022/09/14 00:19:56;;;;;;;7.43;5.43;;;17.70;99.90;;;;;;5124768;27;20117;-73
2022/09/14 00:22:22;;;;;;;6.50;4.90;;;17.70;99.90;;;;;;5123064;27;20043;-73
2022/09/14 00:24:48;;;;;;;6.55;5.30;;;17.70;99.90;;;;;;5129218;27;20027;-73
2022/09/14 00:27:13;;;;;;;5.60;5.00;;;17.70;99.90;;;;;;5122332;27;20131;-73
2022/09/14 00:29:39;;;;;;;5.43;4.50;;;17.70;99.90;;;;;;5120265;27;20039;-72
2022/09/14 00:32:04;;;;;;;5.70;5.10;;;17.70;99.90;;;;;;5120254;27;20626;-72
2022/09/14 00:34:30;;;;;;;5.55;4.25;;;17.70;99.90;;;;;;5128724;27;20473;-72
2022/09/14 00:36:56;;;;;;;6.72;4.55;;;17.70;99.90;;;;;;5137556;27;20042;-72
2022/09/14 00:39:23;;;;;;;7.03;5.13;;;17.60;99.90;;;;;;5109687;27;20027;-72
2022/09/14 00:41:50;;;;;;;6.88;5.03;;;17.60;99.90;;;;;;5118596;27;20023;-72
2022/09/14 00:44:16;;;;;;;6.25;5.60;;;17.60;99.90;;;;;;5123360;27;20081;-72
2022/09/14 00:46:50;;;;;;;7.05;5.75;;;17.60;99.90;;;;;;5139621;27;20031;-72
2022/09/14 00:49:33;;;;;;;6.75;5.90;;;17.60;99.90;;;;;;5122090;27;20089;-72
2022/09/14 00:52:08;;;;;;;5.32;4.82;;;17.50;99.90;;;;;;5124261;27;20033;-72
2022/09/14 00:54:44;;;;;;;5.60;4.97;;;17.50;99.90;;;;;;5108598;27;20108;-73
2022/09/14 00:57:10;;;;;;;5.47;4.85;;;17.50;99.90;;;;;;5134944;27;20494;-73
2022/09/14 00:59:38;;;;;;;6.45;4.70;;;17.50;99.90;;;;;;5137807;27;20037;-72
2022/09/14 01:02:08;;;;;;;5.63;5.00;;;17.40;99.90;;;;;;5130629;27;20049;-73
2022/09/14 01:04:34;;;;;;;6.50;5.80;;;17.40;99.90;;;;;;5118706;27;20792;-73
2022/09/14 01:07:21;;;;;;;8.10;6.25;;;17.40;99.90;;;;;;5109488;27;20035;-72
2022/09/14 01:10:08;;;;;;;8.70;6.40;;;17.40;99.90;;;;;;5118221;27;20028;-73
2022/09/14 01:13:27;;;;;;;7.53;6.60;;;17.30;99.90;;;;;;5123779;27;20145;-73
2022/09/14 01:16:02;;;;;;;7.72;6.30;;;17.40;99.90;;;;;;5087270;27;20506;-73
2022/09/14 01:18:36;;;;;;;8.80;7.90;;;17.30;99.90;;;;;;5123270;27;20050;-73
2022/09/14 01:21:06;;;;;;;9.23;7.10;;;17.30;99.90;;;;;;5127116;27;20027;-73
2022/09/14 01:24:00;;;;;;;8.20;6.47;;;17.40;99.90;;;;;;5132945;27;20054;-73
2022/09/14 01:26:46;;;;;;;7.50;6.53;;;17.40;99.90;;;;;;5113752;27;20031;-73
2022/09/14 01:29:19;;;;;;;7.28;6.50;;;17.40;99.90;;;;;;5120747;27;20063;-73
2022/09/14 01:31:51;;;;;;;9.13;6.13;;;17.40;99.90;;;;;;5127649;27;20034;-73
2022/09/14 01:34:39;;;;;;;8.23;6.57;;;17.40;99.90;;;;;;5133877;27;20027;-74
2022/09/14 01:37:27;;;;;;;8.13;6.50;;;17.40;99.90;;;;;;5114127;27;20226;-73
2022/09/14 01:39:57;;;;;;;7.47;6.70;;;17.30;99.90;;;;;;5123152;27;20035;-73
2022/09/14 01:42:25;;;;;;;7.85;6.63;;;17.30;99.90;;;;;;5118700;27;20043;-73
2022/09/14 01:44:57;;;;;;;8.20;6.53;;;17.30;99.90;;;;;;5122960;27;20041;-73
2022/09/14 01:47:40;;;;;;;8.57;6.80;;;17.30;99.90;;;;;;5127361;27;20028;-73
2022/09/14 01:50:11;;;;;;;8.90;6.90;;;17.30;99.90;;;;;;5123760;27;20026;-73
2022/09/14 01:52:56;;;;;;;12.30;8.40;;;17.30;99.90;;;;;;5117437;27;20031;-73
2022/09/14 01:55:26;;;;;;;13.02;9.65;;;17.30;99.90;;;;;;5119584;27;20087;-74
2022/09/14 01:58:01;;;;;;;9.70;8.63;;;17.30;99.90;;;;;;5119902;27;20083;-74
2022/09/14 02:00:27;;;;;;;12.07;9.40;;;17.30;99.90;;;;;;5130962;27;20038;-74
2022/09/14 02:03:03;;;;;;;10.93;9.13;;;17.30;99.90;;;;;;5121164;27;20023;-75
2022/09/14 02:05:46;;;;;;;13.70;9.88;;;17.30;99.90;;;;;;5120403;27;20027;-74
2022/09/14 02:08:12;;;;;;;13.68;9.90;;;17.30;99.90;;;;;;5118593;27;20027;-74
2022/09/14 02:10:38;;;;;;;10.93;9.32;;;17.30;99.90;;;;;;5132195;27;20022;-74
2022/09/14 02:13:05;;;;;;;12.23;9.80;;;17.30;99.90;;;;;;5140298;27;20125;-74
2022/09/14 02:15:33;;;;;;;12.27;9.48;;;17.30;99.90;;;;;;5125896;27;20031;-74
2022/09/14 02:17:59;;;;;;;12.43;10.38;;;17.30;99.90;;;;;;5131858;27;20018;-75
2022/09/14 02:20:52;;;;;;;11.35;9.63;;;17.30;99.90;;;;;;5106022;28;20024;-75
2022/09/14 02:23:18;;;;;;;12.83;10.57;;;17.30;99.90;;;;;;5125787;27;20125;-74
2022/09/14 02:25:44;;;;;;;12.48;10.43;;;17.30;99.90;;;;;;5135305;27;20222;-74
2022/09/14 02:28:10;;;;;;;11.63;9.98;;;17.40;99.90;;;;;;5119016;27;20023;-75
2022/09/14 02:30:43;;;;;;;13.57;10.65;;;17.30;99.90;;;;;;5144648;27;20015;-75
2022/09/14 02:33:26;;;;;;;13.00;11.15;;;17.30;99.90;;;;;;5114173;27;20023;-74
2022/09/14 02:36:01;;;;;;;13.27;11.40;;;17.30;99.90;;;;;;5107553;27;20032;-74
2022/09/14 02:38:51;;;;;;;15.93;12.63;;;17.30;99.90;;;;;;5104017;27;20031;-74
2022/09/14 02:41:47;;;;;;;16.77;12.68;;;17.30;99.90;;;;;;5133082;27;20047;-75
2022/09/14 02:44:44;;;;;;;20.17;14.15;;;17.30;99.90;;;;;;5127914;27;20039;-74
2022/09/14 02:47:19;;;;;;;18.98;12.35;;;17.30;99.90;;;;;;5117208;27;20092;-75
2022/09/14 02:50:19;;;;;;;16.40;10.98;;;17.40;99.90;;;;;;5118055;27;20016;-74
2022/09/14 02:53:11;;;;;;;13.25;9.75;;;17.40;99.90;;;;;;5111566;27;20106;-74
2022/09/14 02:55:50;;;;;;;14.05;10.32;;;17.40;99.90;;;;;;5124655;27;20028;-74
2022/09/14 02:58:16;;;;;;;16.67;11.30;;;17.40;99.90;;;;;;5123158;27;20102;-74
2022/09/14 03:00:46;;;;;;;12.60;10.85;;;17.40;99.90;;;;;;5120925;27;20131;-74
2022/09/14 03:03:15;;;;;;;10.98;8.68;;;17.40;99.90;;;;;;5114443;27;20035;-74
2022/09/14 03:05:40;;;;;;;9.68;7.03;;;17.40;99.90;;;;;;5128313;27;20058;-74
2022/09/14 03:08:07;;;;;;;11.27;6.25;;;17.40;99.90;;;;;;5127030;27;20057;-74
2022/09/14 03:10:33;;;;;;;8.23;6.40;;;17.30;99.90;;;;;;5134062;27;20136;-74
2022/09/14 03:12:59;;;;;;;11.15;6.30;;;17.30;99.90;;;;;;5126009;27;20066;-74
2022/09/14 03:15:26;;;;;;;11.68;5.95;;;17.20;99.90;;;;;;5145239;27;20566;-75
2022/09/14 03:17:52;;;;;;;10.80;4.93;;;17.20;99.90;;;;;;5142266;27;20029;-75
2022/09/14 03:20:20;;;;;;;8.15;4.78;;;17.10;99.90;;;;;;5146546;27;20549;-74
2022/09/14 03:22:46;;;;;;;7.63;4.93;;;17.10;99.90;;;;;;5130727;27;20034;-74
2022/09/14 03:25:12;;;;;;;6.65;4.28;;;17.00;99.90;;;;;;5135578;27;20019;-75
2022/09/14 03:27:38;;;;;;;7.72;4.53;;;17.00;99.90;;;;;;5131886;27;20019;-75
2022/09/14 03:30:05;;;;;;;6.47;4.10;;;16.90;99.90;;;;;;5139399;27;20011;-74
2022/09/14 03:32:31;;;;;;;6.45;4.13;;;16.90;99.90;;;;;;5117910;27;20026;-74
2022/09/14 03:34:57;;;;;;;6.13;4.10;;;16.80;99.90;;;;;;5128608;27;20047;-74
2022/09/14 03:37:24;;;;;;;6.75;4.03;;;16.80;99.90;;;;;;5129785;27;20051;-75
2022/09/14 03:39:50;;;;;;;6.10;4.13;;;16.70;99.90;;;;;;5123666;27;20052;-74
2022/09/14 03:42:15;;;;;;;6.78;4.70;;;16.70;99.90;;;;;;5110493;27;20034;-74
2022/09/14 03:44:41;;;;;;;8.73;4.82;;;16.70;99.90;;;;;;5128217;27;20025;-75
2022/09/14 03:47:07;;;;;;;7.10;5.03;;;16.70;99.90;;;;;;5125384;27;20032;-74
2022/09/14 03:49:33;;;;;;;7.32;4.43;;;16.70;99.90;;;;;;5135344;27;20038;-74
2022/09/14 03:51:59;;;;;;;9.45;4.80;;;16.70;99.90;;;;;;5109270;27;20020;-75
2022/09/14 03:54:25;;;;;;;6.47;4.50;;;16.60;99.90;;;;;;5123513;27;20396;-74
2022/09/14 03:56:52;;;;;;;7.28;4.38;;;16.60;99.90;;;;;;5126102;27;20035;-74
2022/09/14 03:59:18;;;;;;;6.45;4.70;;;16.60;99.90;;;;;;5115696;27;20050;-74
2022/09/14 04:01:44;;;;;;;6.25;4.47;;;16.60;99.90;;;;;;5106926;27;20028;-75
2022/09/14 04:04:10;;;;;;;5.93;4.70;;;16.60;99.90;;;;;;5117744;27;20063;-74
2022/09/14 04:06:35;;;;;;;6.28;4.43;;;16.50;99.90;;;;;;5130593;27;20384;-74
2022/09/14 04:09:01;;;;;;;6.10;5.10;;;16.50;99.90;;;;;;5121256;27;20050;-74
2022/09/14 04:11:29;;;;;;;8.73;5.43;;;16.50;99.90;;;;;;5123437;27;20115;-74
2022/09/14 04:13:55;;;;;;;8.88;5.13;;;16.50;99.90;;;;;;5128980;27;20028;-74
2022/09/14 04:16:21;;;;;;;9.18;4.78;;;16.50;99.90;;;;;;5128770;27;20041;-74
2022/09/14 04:18:47;;;;;;;6.68;4.78;;;16.50;99.90;;;;;;5142424;27;20023;-74
2022/09/14 04:21:15;;;;;;;6.57;4.55;;;16.50;99.90;;;;;;5128084;27;20513;-74
2022/09/14 04:23:41;;;;;;;6.35;4.40;;;16.50;99.90;;;;;;5120802;27;20033;-74
2022/09/14 04:26:16;;;;;;;10.30;4.80;;;16.50;99.90;;;;;;5134172;27;20030;-75
2022/09/14 04:28:42;;;;;;;8.77;4.53;;;16.50;99.90;;;;;;5110798;27;20023;-74
2022/09/14 04:31:10;;;;;;;6.63;5.00;;;16.40;99.90;;;;;;5109295;27;20054;-74
2022/09/14 04:33:36;;;;;;;8.73;4.93;;;16.40;99.90;;;;;;5124505;27;20450;-74
2022/09/14 04:36:07;;;;;;;9.55;5.32;;;16.40;99.90;;;;;;5137066;27;20022;-74
2022/09/14 04:38:34;;;;;;;8.65;5.20;;;16.30;99.90;;;;;;5127837;27;20022;-74
2022/09/14 04:41:04;;;;;;;8.55;5.35;;;16.30;99.90;;;;;;5129591;27;20590;-74
2022/09/14 04:43:30;;;;;;;10.13;5.25;;;16.30;99.90;;;;;;5121622;27;20031;-74
2022/09/14 04:46:01;;;;;;;8.48;5.20;;;16.30;99.90;;;;;;5134571;27;20046;-74
2022/09/14 04:48:27;;;;;;;7.78;5.28;;;16.40;99.90;;;;;;5127801;27;20036;-73
2022/09/14 04:50:53;;;;;;;12.68;5.97;;;16.30;99.90;;;;;;5138526;27;20075;-74
2022/09/14 04:53:19;;;;;;;11.23;5.75;;;16.30;99.90;;;;;;5126755;27;20039;-74
2022/09/14 04:55:44;;;;;;;9.90;5.40;;;16.30;99.90;;;;;;5131474;27;20367;-74
2022/09/14 04:58:10;;;;;;;7.13;4.93;;;16.20;99.90;;;;;;5119353;27;20035;-74
2022/09/14 05:00:36;;;;;;;7.35;5.05;;;16.20;99.90;;;;;;5123505;27;20552;-74
2022/09/14 05:03:03;;;;;;;12.95;5.15;;;16.20;99.90;;;;;;5130368;27;20018;-74
2022/09/14 05:05:29;;;;;;;11.95;6.05;;;16.20;99.90;;;;;;5109476;27;20037;-74
2022/09/14 05:07:55;;;;;;;10.73;5.22;;;16.10;99.90;;;;;;5116733;27;20074;-74
2022/09/14 05:10:20;;;;;;;8.45;4.53;;;16.10;99.90;;;;;;5116262;27;20157;-74
2022/09/14 05:12:46;;;;;;;9.00;4.72;;;16.10;99.90;;;;;;5124420;27;20023;-74
2022/09/14 05:15:11;;;;;;;9.65;4.57;;;16.10;99.90;;;;;;5134530;27;20030;-74
2022/09/14 05:17:37;;;;;;;10.88;4.53;;;16.00;99.90;;;;;;5130136;27;20491;-75
2022/09/14 05:20:03;;;;;;;8.13;4.30;;;16.00;99.90;;;;;;5126367;27;20490;-74
2022/09/14 05:22:28;;;;;;;10.23;4.88;;;15.90;99.90;;;;;;5121994;27;20027;-74
2022/09/14 05:24:54;;;;;;;10.27;4.47;;;15.90;99.90;;;;;;5122155;27;20435;-74
2022/09/14 05:27:20;;;;;;;8.27;4.55;;;15.90;99.90;;;;;;5121023;27;20126;-74
2022/09/14 05:29:45;;;;;;;10.63;4.13;;;15.90;99.90;;;;;;5113927;27;20030;-74
2022/09/14 05:32:11;;;;;;;6.88;4.63;;;15.90;99.90;;;;;;5115213;27;20681;-74
2022/09/14 05:34:37;;;;;;;11.15;4.50;;;15.90;99.90;;;;;;5132796;27;20016;-73
2022/09/14 05:37:02;;;;;;;8.35;4.60;;;15.90;99.90;;;;;;5123317;27;20179;-74
2022/09/14 05:39:28;;;;;;;11.73;4.90;;;15.80;99.90;;;;;;5112061;27;20130;-74
2022/09/14 05:41:54;;;;;;;13.30;5.55;;;15.80;99.90;;;;;;5113923;27;20041;-74
2022/09/14 05:44:19;;;;;;;10.95;6.15;;;15.80;99.90;;;;;;5117395;27;20496;-74
2022/09/14 05:46:45;;;;;;;11.77;5.80;;;15.80;99.90;;;;;;5109296;27;20051;-74
2022/09/14 05:49:10;;;;;;;13.63;6.07;;;15.80;99.90;;;;;;5128524;27;20070;-74
2022/09/14 05:51:36;;;;;;;11.40;5.30;;;15.80;99.90;;;;;;5139403;27;20027;-74
2022/09/14 05:54:08;;;;;;;9.50;5.53;;;15.80;99.90;;;;;;5113188;28;20036;-75
2022/09/14 05:56:33;;;;;;;10.88;5.47;;;15.80;99.90;;;;;;5087896;28;20034;-74
2022/09/14 05:58:59;;;;;;;13.57;5.90;;;15.80;99.90;;;;;;5114386;27;20027;-74
2022/09/14 06:01:31;;;;;;;8.75;4.90;;;15.80;99.90;;;;;;5116917;27;20027;-75
2022/09/14 06:04:01;;;;;;;10.57;5.00;;;15.70;99.90;;;;;;4389943;27;10000955;-75
2022/09/14 06:06:28;;;;;;;8.70;4.60;;;15.70;99.90;;;;;;5079794;28;20578;-74
2022/09/14 06:08:55;;;;;;;12.27;4.97;;;15.70;99.90;;;;;;5093068;28;20134;-74
2022/09/14 06:11:24;;;;;;;10.95;5.07;;;15.70;99.90;;;;;;5086780;28;20059;-74
2022/09/14 06:13:50;;;;;;;10.98;4.82;;;15.80;99.90;;;;;;5083764;28;20031;-74
2022/09/14 06:16:18;;;;;;;9.25;4.47;;;15.70;99.90;;;;;;5079988;28;20046;-75
2022/09/14 06:18:44;;;;;;;10.60;4.68;;;15.70;99.90;;;;;;5085145;28;20043;-75
2022/09/14 06:21:15;;;;;;;11.82;4.97;;;15.70;99.90;;;;;;5077977;28;20032;-75
2022/09/14 06:23:42;;;;;;;10.55;5.10;;;15.60;99.90;;;;;;5089233;28;20479;-74
2022/09/14 06:26:08;;;;;;;12.85;4.78;;;15.60;99.90;;;;;;5094878;28;20024;-74
2022/09/14 06:28:34;;;;;;;10.63;4.63;;;15.60;99.90;;;;;;5087448;28;20020;-74
2022/09/14 06:31:02;;;;;;;9.70;4.88;;;15.60;99.90;;;;;;5088994;28;20669;-74
2022/09/14 06:33:27;;;;;;;11.07;5.00;;;15.50;99.90;;;;;;5094793;28;20709;-75
2022/09/14 06:35:57;;;;;;;13.98;4.72;;;15.50;99.90;;;;;;5123346;27;20026;-75
2022/09/14 06:38:23;;;;;;;11.52;4.80;;;15.50;99.90;;;;;;5123556;27;20080;-77
2022/09/14 06:40:57;;;;;;;9.40;5.07;;;15.60;99.90;;;;;;5114900;27;20063;-76
2022/09/14 06:43:23;;;;;;;;;;;15.60;99.90;;;;;;5125759;27;20050;-77
2022/09/14 06:46:03;;;;;;;13.98;5.15;;;15.60;99.90;;;;;;5119159;27;19919;-76
2022/09/14 06:48:38;;;;;;;13.02;4.90;;;15.60;99.90;;;;;;5113882;27;20103;-76
2022/09/14 06:51:24;;;;;;;12.70;4.78;;;15.60;99.90;;;;;;5122056;27;20118;-75
2022/09/14 06:53:50;;;;;;;13.23;4.50;;;15.50;99.90;;;;;;5117822;27;20015;-75
2022/09/14 06:56:17;;;;;;;10.43;4.28;;;15.50;99.90;;;;;;5131486;27;20031;-74
2022/09/14 06:58:43;;;;;;;13.00;3.90;;;15.50;99.90;;;;;;5142918;27;20218;-75
2022/09/14 07:01:14;;;;;;;9.50;3.42;;;15.50;99.90;;;;;;5136786;27;20501;-73
2022/09/14 07:03:42;;;;;;;12.65;4.53;;;15.40;99.90;;;;;;5119877;27;20030;-75
2022/09/14 07:06:11;;;;;;;10.45;3.78;;;15.40;99.90;;;;;;5120866;27;20033;-75
2022/09/14 07:08:37;;;;;;;10.10;3.60;;;15.40;99.90;;;;;;5128094;27;20027;-74
2022/09/14 07:11:05;;;;;;;8.70;3.10;;;15.40;99.90;;;;;;5120332;27;20029;-74
2022/09/14 07:13:31;;;;;;;14.20;3.67;;;15.30;99.90;;;;;;5123100;27;20745;-74
2022/09/14 07:15:57;;;;;;;9.32;3.40;;;15.20;99.90;;;;;;5120888;27;20085;-75
2022/09/14 07:18:27;;;;;;;11.50;3.42;;;15.20;99.90;;;;;;5126883;27;20900;-74
2022/09/14 07:20:53;;;;;;;8.98;3.60;;;15.20;99.90;;;;;;5115285;27;20043;-74
2022/09/14 07:23:19;;;;;;;14.73;4.03;;;15.20;99.90;;;;;;5123887;27;20027;-74
2022/09/14 07:25:45;;;;;;;12.48;4.47;;;15.20;99.90;;;;;;5128527;27;20031;-75
2022/09/14 07:28:10;;;;;;;10.43;3.90;;;15.10;99.90;;;;;;5129966;27;20209;-74
2022/09/14 07:30:37;;;;;;;12.25;4.10;;;15.10;99.90;;;;;;5133691;27;20019;-74
2022/09/14 07:33:04;;;;;;;14.45;4.35;;;15.20;99.90;;;;;;5126231;27;20027;-77
2022/09/14 07:35:30;;;;;;;10.23;4.20;;;15.10;99.90;;;;;;5140767;27;20390;-76
2022/09/14 07:37:56;;;;;;;8.90;4.20;;;15.10;99.90;;;;;;5131829;27;20028;-75
2022/09/14 07:40:22;;;;;;;11.35;3.80;;;15.10;99.90;;;;;;5111249;27;20097;-77
2022/09/14 07:42:52;;;;;;;11.73;3.92;;;15.10;99.90;;;;;;5128745;27;20030;-75
2022/09/14 07:45:19;;;;;;;9.57;3.50;;;15.10;99.90;;;;;;5129298;27;20023;-75
2022/09/14 07:47:45;;;;;;;9.38;3.92;;;15.10;99.90;;;;;;5123462;27;20039;-77
2022/09/14 07:50:11;;;;;;;11.40;4.50;;;15.10;99.90;;;;;;5109303;27;20030;-77
2022/09/14 07:52:38;;;;;;;9.00;3.72;;;15.10;99.90;;;;;;5144790;27;20027;-76
2022/09/14 07:55:05;;;;;;;8.57;3.92;;;15.10;99.90;;;;;;5126702;27;20084;-77
2022/09/14 07:57:30;;;;;;;11.73;4.43;;;15.10;99.90;;;;;;5123345;27;20694;-75
2022/09/14 07:59:57;;;;;;;12.43;4.18;;;15.10;99.90;;;;;;5130680;27;20088;-78
2022/09/14 08:02:23;;;;;;;12.43;3.75;;;15.10;99.90;;;;;;5123442;27;20035;-77
2022/09/14 08:04:51;;;;;;;13.93;4.00;;;15.10;99.90;;;;;;5108761;27;20039;-77
2022/09/14 08:07:17;;;;;;;8.73;3.90;;;15.10;99.90;;;;;;5140708;27;20612;-77
2022/09/14 08:09:44;;;;;;;10.45;4.63;;;15.10;99.90;;;;;;5146174;27;20021;-77
2022/09/14 08:12:09;;;;;;;10.05;4.20;;;15.20;99.90;;;;;;5119653;27;20023;-77
2022/09/14 08:14:35;;;;;;;9.20;4.53;;;15.20;99.90;;;;;;5113034;27;20038;-76
2022/09/14 08:17:01;;;;;;;8.57;4.28;;;15.20;99.90;;;;;;5135269;27;20208;-76
2022/09/14 08:19:27;;;;;;;10.45;4.47;;;15.30;99.90;;;;;;5118108;27;20066;-75
2022/09/14 08:21:52;;;;;;;13.52;4.53;;;15.20;99.90;;;;;;5112464;27;20043;-75
2022/09/14 08:24:20;;;;;;;9.40;4.20;;;15.30;99.90;;;;;;5137972;27;20736;-75
2022/09/14 08:26:46;;;;;;;10.32;5.10;;;15.30;99.90;;;;;;5137851;27;20019;-74
2022/09/14 08:29:13;;;;;;;7.85;4.57;;;15.40;99.90;;;;;;5133217;27;20023;-74
2022/09/14 08:31:39;;;;;;;8.68;4.82;;;15.40;99.90;;;;;;5108077;27;20024;-74
2022/09/14 08:34:05;;;;;;;8.88;4.68;;;15.50;99.90;;;;;;5119215;27;20030;-74
2022/09/14 08:36:41;;;;;;;12.70;5.38;;;15.50;99.90;;;;;;5114985;27;20136;-74
2022/09/14 08:39:09;;;;;;;9.82;4.97;;;15.40;99.90;;;;;;5135653;27;20038;-75
2022/09/14 08:41:53;;;;;;;8.63;4.32;;;15.50;99.90;;;;;;5121118;27;20314;-75
2022/09/14 08:44:45;;;;;;;10.63;4.90;;;15.50;99.90;;;;;;5104107;27;20586;-75
2022/09/14 08:47:18;;;;;;;;;;;15.50;99.90;;;;;;5102865;27;20100;-75
2022/09/14 08:50:04;;;;;;;9.60;4.30;;;15.50;99.90;;;;;;5091169;27;20008;-75
2022/09/14 08:52:42;;;;;;;13.27;5.15;;;15.60;99.90;;;;;;5099722;27;20492;-74
2022/09/14 08:55:30;;;;;;;11.60;5.00;;;15.60;99.90;;;;;;5101282;27;20033;-74
2022/09/14 08:58:33;;;;;;;9.60;4.53;;;15.60;99.90;;;;;;5120207;27;20038;-73
2022/09/14 09:01:06;;;;;;;8.87;4.60;;;15.60;99.90;;;;;;5097096;27;20466;-74
2022/09/14 09:03:51;;;;;;;10.82;5.00;;;15.70;99.90;;;;;;5087463;28;20281;-74
2022/09/14 09:06:41;;;;;;;10.18;4.88;;;15.70;99.90;;;;;;5096350;27;20587;-76
2022/09/14 09:09:30;;;;;;;9.20;4.53;;;15.70;99.90;;;;;;5055961;27;20035;-77
2022/09/14 09:11:58;;;;;;;11.45;5.50;;;15.80;99.90;;;;;;5106446;27;20096;-76
2022/09/14 09:14:33;;;;;;;15.18;5.78;;;15.80;99.90;;;;;;5118974;27;20035;-76
2022/09/14 09:17:03;;;;;;;9.07;5.00;;;15.80;99.90;;;;;;5121624;27;20255;-76
2022/09/14 09:19:47;;;;;;;9.07;4.90;;;15.90;99.90;;;;;;5100130;27;20031;-76
2022/09/14 09:22:16;;;;;;;14.70;5.30;;;15.90;99.90;;;;;;5102043;27;20158;-76
2022/09/14 09:24:47;;;;;;;17.23;5.60;;;16.00;99.90;;;;;;5094189;27;20032;-76
2022/09/14 09:27:15;;;;;;;10.25;4.60;;;16.00;99.90;;;;;;5099712;27;20110;-76
2022/09/14 09:29:41;;;;;;;10.63;5.65;;;16.00;99.90;;;;;;5105465;27;20501;-75
2022/09/14 09:32:12;;;;;;;10.23;5.07;;;16.10;99.90;;;;;;5081406;28;20480;-76
2022/09/14 09:34:38;;;;;;;11.65;5.20;;;16.10;99.90;;;;;;5086386;27;20056;-76
2022/09/14 09:37:04;;;;;;;11.15;5.10;;;16.10;99.90;;;;;;5102143;27;20309;-77
2022/09/14 09:39:30;;;;;;;11.07;4.78;;;16.10;99.90;;;;;;5100781;27;20092;-78
2022/09/14 09:42:04;;;;;;;12.80;5.00;;;16.10;99.90;;;;;;5101248;27;20112;-77
2022/09/14 09:45:09;;;;;;;9.77;4.72;;;16.10;99.90;;;;;;5100954;27;20028;-77
2022/09/14 09:47:38;;;;;;;14.13;5.28;;;16.10;99.90;;;;;;5114337;27;20211;-76
2022/09/14 09:50:12;;;;;;;10.48;5.10;;;16.00;99.90;;;;;;5093074;27;20027;-78
2022/09/14 09:52:47;;;;;;;12.95;5.13;;;16.00;99.90;;;;;;5115274;28;20039;-76
2022/09/14 09:55:19;;;;;;;7.88;4.88;;;16.10;99.90;;;;;;5085362;28;20261;-76
2022/09/14 09:57:45;;;;;;;8.45;4.68;;;16.10;99.90;;;;;;5101517;28;20040;-79
2022/09/14 10:00:21;;;;;;;10.63;4.80;;;16.10;99.90;;;;;;5110909;28;20518;-75
2022/09/14 10:02:48;;;;;;;11.30;5.18;;;16.10;99.90;;;;;;5092009;28;20008;-75
2022/09/14 10:05:18;;;;;;;8.48;4.78;;;16.00;99.90;;;;;;5088871;28;20066;-75
2022/09/14 10:08:01;;;;;;;13.88;5.32;;;16.00;99.90;;;;;;5115085;27;20110;-74
2022/09/14 10:10:38;;;;;;;10.07;5.83;;;16.00;99.90;;;;;;5118543;27;20024;-75
2022/09/14 10:13:14;;;;;;;12.50;5.32;;;16.00;99.90;;;;;;5105402;27;20023;-75
2022/09/14 10:15:42;;;;;;;10.65;5.55;;;16.10;99.90;;;;;;5088024;28;20539;-75
2022/09/14 10:18:10;;;;;;;11.07;5.53;;;16.10;99.90;;;;;;5091239;27;20500;-75
2022/09/14 10:20:38;;;;;;;11.57;5.82;;;16.10;99.90;;;;;;5107333;27;20822;-77
2022/09/14 10:23:16;;;;;;;10.05;5.53;;;16.10;99.90;;;;;;5117409;27;20019;-76
2022/09/14 10:25:42;;;;;;;9.45;5.68;;;16.10;99.90;;;;;;5112142;27;20031;-74
2022/09/14 10:28:26;;;;;;;9.32;6.10;;;16.20;99.90;;;;;;5110037;27;20076;-75
2022/09/14 10:31:07;;;;;;;13.50;5.82;;;16.20;99.90;;;;;;5114564;27;20026;-75
2022/09/14 10:33:34;;;;;;;11.23;5.53;;;16.20;99.90;;;;;;5090756;28;20192;-75
2022/09/14 10:36:13;;;;;;;9.48;5.22;;;16.10;99.90;;;;;;5092810;27;20115;-75
2022/09/14 10:38:51;;;;;;;11.38;5.43;;;16.10;99.90;;;;;;5089081;28;20024;-74
2022/09/14 10:41:35;;;;;;;9.90;5.43;;;16.10;99.90;;;;;;5114024;27;20034;-75
2022/09/14 10:44:33;;;;;;;10.63;5.85;;;16.10;99.90;;;;;;5100446;27;20387;-75
2022/09/14 10:47:24;;;;;;;8.00;5.28;;;16.10;99.90;;;;;;5100726;27;20038;-75
2022/09/14 10:50:14;;;;;;;9.05;5.20;;;16.20;99.90;;;;;;5099728;27;20462;-75
2022/09/14 10:53:18;;;;;;;9.98;5.97;;;16.20;99.90;;;;;;5090646;27;20023;-75
2022/09/14 10:55:59;;;;;;;8.73;5.32;;;16.20;99.90;;;;;;5090968;28;20028;-75
2022/09/14 10:58:30;;;;;;;12.27;5.90;;;16.20;99.90;;;;;;5104103;27;20031;-76
2022/09/14 11:01:23;;;;;;;9.35;5.30;;;16.20;99.90;;;;;;5122586;27;20020;-76
2022/09/14 11:04:13;;;;;;;9.23;5.55;;;16.20;99.90;;;;;;5109299;27;20076;-77
2022/09/14 11:06:52;;;;;;;6.63;5.32;;;16.20;99.90;;;;;;4732735;28;10000224;-75
2022/09/14 11:09:22;;;;;;;10.55;6.00;;;16.20;99.90;;;;;;5086052;28;20034;-75
2022/09/14 11:12:01;;;;;;;11.48;6.18;;;16.20;99.90;;;;;;5116938;27;20032;-75
2022/09/14 11:15:02;;;;;;;11.00;5.95;;;16.20;99.90;;;;;;5101813;27;20086;-75
2022/09/14 11:17:42;;;;;;;9.60;5.85;;;16.20;99.90;;;;;;5108395;27;20031;-75
2022/09/14 11:20:26;;;;;;;10.00;5.97;;;16.20;99.90;;;;;;5102586;27;20085;-77
2022/09/14 11:23:16;;;;;;;8.63;5.97;;;16.20;99.90;;;;;;5110918;27;20040;-75
2022/09/14 11:26:12;;;;;;;9.18;6.00;;;16.30;99.90;;;;;;5096374;27;20048;-75
2022/09/14 11:28:51;;;;;;;11.95;7.00;;;16.30;99.90;;;;;;5070004;27;20032;-76
2022/09/14 11:31:44;;;;;;;9.40;6.85;;;16.20;99.90;;;;;;5106013;27;20491;-76
2022/09/14 11:34:31;;;;;;;10.23;5.93;;;16.20;99.90;;;;;;5098174;27;20055;-75
2022/09/14 11:37:10;;;;;;;13.35;7.18;;;16.30;99.90;;;;;;5095974;27;20083;-75
2022/09/14 11:39:42;;;;;;;11.20;6.95;;;16.30;99.90;;;;;;5106054;27;20467;-74
2022/09/14 11:42:23;;;;;;;13.15;6.85;;;16.40;99.90;;;;;;5121394;27;20078;-74
2022/09/14 11:45:00;;;;;;;8.27;6.50;;;16.40;99.90;;;;;;5114436;27;20085;-74
2022/09/14 11:47:33;;;;;;;12.50;6.88;;;16.30;99.90;;;;;;5117789;27;20062;-75
2022/09/14 11:50:21;;;;;;;11.52;7.43;;;16.40;99.90;;;;;;5134654;27;20034;-75
2022/09/14 11:53:00;;;;;;;9.32;7.00;;;16.40;99.90;;;;;;5122864;27;20019;-75
2022/09/14 11:55:25;;;;;;;9.75;7.25;;;16.40;99.90;;;;;;5117982;27;20045;-75
2022/09/14 11:57:51;;;;;;;11.52;7.68;;;16.40;99.90;;;;;;5140806;27;20059;-76
2022/09/14 12:00:22;;;;;;;9.27;6.70;;;16.30;99.90;;;;;;5116033;27;20080;-76
2022/09/14 12:03:00;;;;;;;9.60;6.38;;;16.30;99.90;;;;;;5111619;27;20043;-75
2022/09/14 12:05:29;;;;;;;7.13;5.38;;;16.30;99.90;;;;;;5107399;27;20026;-76
2022/09/14 12:08:23;;;;;;;7.72;5.28;;;16.20;99.90;;;;;;5130084;27;20030;-76
2022/09/14 12:11:23;;;;;;;9.35;5.88;;;16.20;99.90;;;;;;5123926;27;20623;-76
2022/09/14 12:14:09;;;;;;;7.47;4.93;;;16.20;99.90;;;;;;5121861;27;20096;-77
2022/09/14 12:17:13;;;;;;;6.85;5.00;;;16.10;99.90;;;;;;5119302;27;20574;-77
2022/09/14 12:19:40;;;;;;;6.95;4.63;;;16.10;99.90;;;;;;5104682;27;20050;-76
2022/09/14 12:22:33;;;;;;;5.78;4.80;;;16.10;99.90;;;;;;5134530;27;20245;-76
2022/09/14 12:25:21;;;;;;;6.20;4.70;;;16.00;99.90;;;;;;5107695;27;20140;-76
2022/09/14 12:27:48;;;;;;;5.13;4.55;;;16.00;99.90;;;;;;5113077;27;20693;-76
2022/09/14 12:30:39;;;;;;;5.93;4.88;;;16.00;99.90;;;;;;5132005;27;20039;-75
2022/09/14 12:33:33;;;;;;;5.80;4.40;;;16.00;99.90;;;;;;5132174;27;20697;-75
2022/09/14 12:36:01;;;;;;;6.97;4.57;;;16.00;99.90;;;;;;5121563;27;20028;-75
2022/09/14 12:38:30;;;;;;;5.20;3.95;;;16.00;99.90;;;;;;5134656;27;20025;-75
2022/09/14 12:40:58;;;;;;;6.20;4.07;;;16.00;99.90;;;;;;5111162;27;20034;-75
2022/09/14 12:43:36;;;;;;;5.63;3.58;;;16.00;99.90;;;;;;5129416;27;20060;-75
2022/09/14 12:46:20;;;;;;;4.07;3.28;;;16.00;99.90;;;;;;5141019;27;20443;-75
2022/09/14 12:48:54;;;;;;;5.65;2.95;;;15.90;99.90;;;;;;5142369;27;20023;-75
2022/09/14 12:51:25;;;;;;;2.92;2.63;;;15.90;99.90;;;;;;5120536;27;20035;-78
2022/09/14 12:53:57;;;;;;;2.40;2.20;;;15.90;99.90;;;;;;5111887;27;20072;-78
2022/09/14 12:56:46;;;;;;;3.78;2.47;;;15.90;99.90;;;;;;5124369;27;20070;-78
2022/09/14 12:59:21;;;;;;;3.35;2.45;;;15.90;99.90;;;;;;5131419;27;20035;-78
2022/09/14 13:01:58;;;;;;;2.85;2.15;;;15.90;99.90;;;;;;5114348;27;20038;-78
2022/09/14 13:04:28;;;;;;;2.80;2.03;;;15.80;99.90;;;;;;5115617;27;20027;-77
2022/09/14 13:06:56;;;;;;;1.95;1.60;;;15.90;99.90;;;;;;5130055;27;20618;-77
2022/09/14 13:09:27;;;;;;;2.33;1.30;;;15.90;99.90;;;;;;5107254;27;20016;-77